Woolstock, Iowa
Current Conditions -  °F | °C
As of 5:15 PM on Tuesday 25 Nov 2014 (Local Time) from KEBS Reporting Station
Few Clouds Few Clouds  
Wind Chill: -8°   Ceiling: Unl
Heat Index: -3°   Visibility: 10mi
Dew Point: -9°   Wind: 8mph
Humidity: 64%   Direction: 150°SSE
Pressure: 30.01"   Gusts: NA
Location:  42.57°N, 93.84°W
Report Text: KEBS 252315Z AUTO 15007KT 10SM FEW065 M03/M09 A3001 RMK AO2
Loading
Personal Weather Stations






























Interactive Weather Map New forecast layout! Learn more

10-Day Weather Forecast

Advertisements
Track Severe Weather on mobile